Time,TemperatureF,DewpointF,PressureIn,WindDirection,WindDirectionDegrees,WindSpeedMPH,WindSpeedGustMPH,Humidity,HourlyPrecipIn,Conditions,Clouds,dailyrainin,SolarRadiationWatts/m^2,SoftwareType,DateUTC
2013-03-16 00:00:00,59.0,51.0,-100.00,SW,214,6.0,-999.0,76,-99.99,,,-99.99,0.000000,,2013-03-16 05:00:00,
2013-03-16 00:53:00,59.0,51.0,-100.00,SW,214,6.0,-999.0,76,-99.99,,,-99.99,0.000000,,2013-03-16 05:53:00,
2013-03-16 03:00:00,57.0,51.0,-100.00,SW,232,5.0,-999.0,81,-99.99,,,-99.99,0.000000,,2013-03-16 08:00:00,
2013-03-16 03:52:00,57.0,51.0,-100.00,SW,232,5.0,-999.0,81,-99.99,,,-99.99,0.000000,,2013-03-16 08:52:00,
2013-03-16 04:00:00,56.0,52.0,-100.00,SW,225,4.0,-999.0,86,-99.99,,,-99.99,0.000000,,2013-03-16 09:00:00,
2013-03-16 04:53:00,56.0,52.0,-100.00,SW,225,4.0,-999.0,86,-99.99,,,-99.99,0.000000,,2013-03-16 09:53:00,
2013-03-16 05:00:00,56.0,53.0,-100.00,SW,221,3.0,-999.0,90,-99.99,,,-99.99,0.000000,,2013-03-16 10:00:00,
2013-03-16 05:53:00,56.0,53.0,-100.00,SW,221,3.0,-999.0,90,-99.99,,,-99.99,0.000000,,2013-03-16 10:53:00,
2013-03-16 06:00:00,50.0,48.0,-100.00,West,279,1.0,-999.0,92,-99.99,,,-99.99,0.000000,,2013-03-16 11:00:00,
2013-03-16 06:53:00,50.0,48.0,-100.00,West,279,1.0,-999.0,92,-99.99,,,-99.99,0.000000,,2013-03-16 11:53:00,
2013-03-16 07:00:00,46.0,45.0,-100.00,NE,47,1.0,-999.0,95,-99.99,,,-99.99,0.280000,,2013-03-16 12:00:00,
2013-03-16 07:53:00,46.0,45.0,-100.00,NE,47,1.0,-999.0,95,-99.99,,,-99.99,0.280000,,2013-03-16 12:53:00,
2013-03-16 08:00:00,50.0,49.0,-100.00,North,11,0.0,-999.0,94,-99.99,,,-99.99,48.520000,,2013-03-16 13:00:00,
2013-03-16 08:53:00,50.0,49.0,-100.00,North,11,0.0,-999.0,94,-99.99,,,-99.99,48.520000,,2013-03-16 13:53:00,
2013-03-16 09:00:00,65.0,56.0,-100.00,South,182,1.0,-999.0,74,-99.99,,,-99.99,258.209991,,2013-03-16 14:00:00,
2013-03-16 09:52:00,65.0,56.0,-100.00,South,182,1.0,-999.0,74,-99.99,,,-99.99,258.209991,,2013-03-16 14:52:00,
2013-03-16 10:00:00,69.0,56.0,-100.00,SW,224,8.0,-999.0,63,-99.99,,,-99.99,451.250000,,2013-03-16 15:00:00,
2013-03-16 10:53:00,69.0,56.0,-100.00,SW,224,8.0,-999.0,63,-99.99,,,-99.99,451.250000,,2013-03-16 15:53:00,
2013-03-16 11:00:00,70.0,55.0,-100.00,SW,233,10.0,-999.0,59,-99.99,,,-99.99,614.169983,,2013-03-16 16:00:00,
2013-03-16 11:53:00,70.0,55.0,-100.00,SW,233,10.0,-999.0,59,-99.99,,,-99.99,614.169983,,2013-03-16 16:53:00,
2013-03-16 12:00:00,72.0,55.0,-100.00,SW,229,11.0,-999.0,55,-99.99,,,-99.99,738.150024,,2013-03-16 17:00:00,
2013-03-16 12:53:00,72.0,55.0,-100.00,SW,229,11.0,-999.0,55,-99.99,,,-99.99,738.150024,,2013-03-16 17:53:00,
2013-03-16 13:00:00,73.0,54.0,-100.00,SW,226,10.0,-999.0,52,-99.99,,,-99.99,799.900024,,2013-03-16 18:00:00,
2013-03-16 13:53:00,73.0,54.0,-100.00,SW,226,10.0,-999.0,52,-99.99,,,-99.99,799.900024,,2013-03-16 18:53:00,
2013-03-16 14:00:00,73.0,56.0,-100.00,SW,231,12.0,-999.0,54,-99.99,,,-99.99,801.799988,,2013-03-16 19:00:00,
2013-03-16 14:53:00,73.0,56.0,-100.00,SW,231,12.0,-999.0,54,-99.99,,,-99.99,801.799988,,2013-03-16 19:53:00,
2013-03-16 15:00:00,74.0,56.0,-100.00,SW,232,11.0,-999.0,54,-99.99,,,-99.99,740.049988,,2013-03-16 20:00:00,
2013-03-16 15:52:00,74.0,56.0,-100.00,SW,232,11.0,-999.0,54,-99.99,,,-99.99,740.049988,,2013-03-16 20:52:00,
2013-03-16 16:00:00,72.0,55.0,-100.00,SW,223,9.0,-999.0,54,-99.99,,,-99.99,627.479980,,2013-03-16 21:00:00,
2013-03-16 16:53:00,72.0,55.0,-100.00,SW,223,9.0,-999.0,54,-99.99,,,-99.99,627.479980,,2013-03-16 21:53:00,
2013-03-16 17:00:00,72.0,55.0,-100.00,SSW,212,9.0,-999.0,56,-99.99,,,-99.99,460.089996,,2013-03-16 22:00:00,
2013-03-16 17:53:00,72.0,55.0,-100.00,SSW,212,9.0,-999.0,56,-99.99,,,-99.99,460.089996,,2013-03-16 22:53:00,
2013-03-16 18:00:00,70.0,55.0,-100.00,SSW,205,8.0,-999.0,60,-99.99,,,-99.99,272.839996,,2013-03-16 23:00:00,
2013-03-16 18:53:00,70.0,55.0,-100.00,SSW,205,8.0,-999.0,60,-99.99,,,-99.99,272.839996,,2013-03-16 23:53:00,
2013-03-16 19:00:00,65.0,57.0,-100.00,South,181,5.0,-999.0,73,-99.99,,,-99.99,63.180000,,2013-03-17 00:00:00,
2013-03-16 19:52:00,65.0,57.0,-100.00,South,181,5.0,-999.0,73,-99.99,,,-99.99,63.180000,,2013-03-17 00:52:00,
2013-03-16 20:00:00,62.0,58.0,-100.00,SSE,153,2.0,-999.0,85,-99.99,,,-99.99,0.560000,,2013-03-17 01:00:00,
2013-03-16 20:53:00,62.0,58.0,-100.00,SSE,153,2.0,-999.0,85,-99.99,,,-99.99,0.560000,,2013-03-17 01:53:00,
2013-03-16 21:00:00,61.0,58.0,-100.00,SSE,154,1.0,-999.0,90,-99.99,,,-99.99,0.000000,,2013-03-17 02:00:00,
2013-03-16 21:53:00,61.0,58.0,-100.00,SSE,154,1.0,-999.0,90,-99.99,,,-99.99,0.000000,,2013-03-17 02:53:00,
2013-03-16 22:00:00,60.0,58.0,-100.00,SSE,156,1.0,-999.0,93,-99.99,,,-99.99,0.000000,,2013-03-17 03:00:00,
2013-03-16 22:53:00,60.0,58.0,-100.00,SSE,156,1.0,-999.0,93,-99.99,,,-99.99,0.000000,,2013-03-17 03:53:00,
2013-03-16 23:00:00,56.0,53.0,-100.00,SSE,154,1.0,-999.0,91,-99.99,,,-99.99,0.000000,,2013-03-17 04:00:00,
2013-03-16 23:53:00,56.0,53.0,-100.00,SSE,154,1.0,-999.0,91,-99.99,,,-99.99,0.000000,,2013-03-17 04:53:00,